createdAt,value
2022-12-29T00:00:25.792Z,26.40
2022-12-29T00:03:14.566Z,26.36
2022-12-29T00:05:43.092Z,26.47
2022-12-29T00:08:11.683Z,26.59
2022-12-29T00:10:39.981Z,26.65
2022-12-29T00:13:27.193Z,26.71
2022-12-29T00:15:56.320Z,26.77
2022-12-29T00:18:25.019Z,26.89
2022-12-29T00:21:14.704Z,26.49
2022-12-29T00:24:00.538Z,26.87
2022-12-29T00:26:45.512Z,26.83
2022-12-29T00:29:33.251Z,27.03
2022-12-29T00:32:19.902Z,27.04
2022-12-29T00:35:06.376Z,27.31
2022-12-29T00:37:48.673Z,27.19
2022-12-29T00:40:31.233Z,27.31
2022-12-29T00:43:17.416Z,27.21
2022-12-29T00:45:48.020Z,27.15
2022-12-29T00:48:16.562Z,27.30
2022-12-29T00:50:44.364Z,27.13
2022-12-29T00:53:13.016Z,27.12
2022-12-29T00:55:42.252Z,27.27
2022-12-29T00:58:10.664Z,27.19
2022-12-29T01:00:39.270Z,27.26
2022-12-29T01:03:09.115Z,27.19
2022-12-29T01:05:38.841Z,27.14
2022-12-29T01:08:07.372Z,27.35
2022-12-29T01:10:35.061Z,27.19
2022-12-29T01:13:03.270Z,27.17
2022-12-29T01:15:31.721Z,27.25
2022-12-29T01:17:59.956Z,27.15
2022-12-29T01:20:29.882Z,27.01
2022-12-29T01:22:58.253Z,27.05
2022-12-29T01:25:26.848Z,27.40
2022-12-29T01:27:55.189Z,27.30
2022-12-29T01:30:23.802Z,27.23
2022-12-29T01:32:52.079Z,26.93
2022-12-29T01:35:20.808Z,26.92
2022-12-29T01:37:50.532Z,26.65
2022-12-29T01:40:19.461Z,26.89
2022-12-29T01:42:48.182Z,27.05
2022-12-29T01:45:17.485Z,27.01
2022-12-29T01:47:49.052Z,27.05
2022-12-29T01:50:18.616Z,25.79
2022-12-29T01:52:56.761Z,26.36
2022-12-29T01:55:25.915Z,26.78
2022-12-29T01:57:55.869Z,26.78
2022-12-29T02:00:24.594Z,27.01
2022-12-29T02:02:54.478Z,26.85
2022-12-29T02:05:42.524Z,26.21
2022-12-29T02:08:12.537Z,26.84
2022-12-29T02:10:41.597Z,26.91
2022-12-29T02:13:10.052Z,27.01
2022-12-29T02:15:55.023Z,26.54
2022-12-29T02:18:38.098Z,26.60
2022-12-29T02:21:49.441Z,26.38
2022-12-29T02:25:09.274Z,26.02
2022-12-29T02:27:51.336Z,26.57
2022-12-29T02:30:43.888Z,26.41
2022-12-29T02:33:23.442Z,26.62
2022-12-29T02:35:56.919Z,26.71
2022-12-29T02:38:36.077Z,26.73
2022-12-29T02:41:09.565Z,26.83
2022-12-29T02:43:41.441Z,27.14
2022-12-29T02:46:19.623Z,26.76
2022-12-29T02:48:53.939Z,26.89
2022-12-29T02:51:26.210Z,26.91
2022-12-29T02:54:12.748Z,26.95
2022-12-29T02:56:43.321Z,26.87
2022-12-29T02:59:12.715Z,26.99
2022-12-29T03:02:10.025Z,26.62
2022-12-29T03:04:43.102Z,26.64
2022-12-29T03:07:16.959Z,26.65
2022-12-29T03:09:51.967Z,26.65
2022-12-29T03:12:41.300Z,26.84
2022-12-29T03:15:30.995Z,26.75
2022-12-29T03:18:06.509Z,26.61
2022-12-29T03:20:40.654Z,26.89
2022-12-29T03:23:09.301Z,27.24
2022-12-29T03:25:39.880Z,27.10
2022-12-29T03:28:10.945Z,27.17
2022-12-29T03:30:39.311Z,26.19
2022-12-29T03:33:11.827Z,26.93
2022-12-29T03:35:43.109Z,27.18
2022-12-29T03:38:17.157Z,27.01
2022-12-29T03:40:49.918Z,27.45
2022-12-29T03:43:18.597Z,27.30
2022-12-29T03:45:47.251Z,27.93
2022-12-29T03:48:16.996Z,27.98
2022-12-29T03:50:45.668Z,28.20
2022-12-29T03:53:14.030Z,28.11
2022-12-29T03:55:43.494Z,28.23
2022-12-29T03:58:11.810Z,28.06
2022-12-29T04:00:41.737Z,28.24
2022-12-29T04:03:10.081Z,28.03
2022-12-29T04:05:40.148Z,28.21
2022-12-29T04:08:08.501Z,28.19
2022-12-29T04:10:37.135Z,28.41
2022-12-29T04:13:05.342Z,28.27
2022-12-29T04:15:33.984Z,28.19
2022-12-29T04:18:02.436Z,28.31
2022-12-29T04:20:48.244Z,28.23
2022-12-29T04:23:18.752Z,28.16
2022-12-29T04:25:48.412Z,28.54
2022-12-29T04:28:16.882Z,28.50
2022-12-29T04:30:48.415Z,28.49
2022-12-29T04:33:16.798Z,28.59
2022-12-29T04:35:47.934Z,28.63
2022-12-29T04:38:16.523Z,28.69
2022-12-29T04:40:47.250Z,28.56
2022-12-29T04:43:15.876Z,28.59
2022-12-29T04:45:45.810Z,28.47
2022-12-29T04:48:14.619Z,28.39
2022-12-29T04:50:43.405Z,28.48
2022-12-29T04:53:11.911Z,28.49
2022-12-29T04:55:40.588Z,28.50
2022-12-29T04:58:10.262Z,28.33
2022-12-29T05:00:38.827Z,28.29
2022-12-29T05:03:07.340Z,28.25
2022-12-29T05:05:36.295Z,28.46
2022-12-29T05:08:04.521Z,28.40
2022-12-29T05:10:33.107Z,28.22
2022-12-29T05:13:01.935Z,28.43
2022-12-29T05:15:32.230Z,28.26
2022-12-29T05:18:00.615Z,28.43
2022-12-29T05:20:29.127Z,28.14
2022-12-29T05:22:57.490Z,28.04
2022-12-29T05:25:26.107Z,28.11
2022-12-29T05:27:54.528Z,28.02
2022-12-29T05:30:23.197Z,28.10
2022-12-29T05:32:52.908Z,28.01
2022-12-29T05:35:21.423Z,28.13
2022-12-29T05:37:49.704Z,28.39
2022-12-29T05:40:18.899Z,28.25
2022-12-29T05:42:47.459Z,28.42
2022-12-29T05:45:16.153Z,28.42
2022-12-29T05:47:44.577Z,28.54
2022-12-29T05:50:14.546Z,28.37
2022-12-29T05:52:42.995Z,28.59
2022-12-29T05:55:12.138Z,28.75
2022-12-29T05:57:40.577Z,28.81
2022-12-29T06:00:10.757Z,28.57
2022-12-29T06:02:39.189Z,28.76
2022-12-29T06:05:08.295Z,28.82
2022-12-29T06:07:38.110Z,28.80
2022-12-29T06:10:07.640Z,28.57
2022-12-29T06:12:35.851Z,29.03
2022-12-29T06:15:04.710Z,28.47
2022-12-29T06:17:33.091Z,28.56
2022-12-29T06:20:02.243Z,28.38
2022-12-29T06:22:30.840Z,28.37
2022-12-29T06:25:04.889Z,28.16
2022-12-29T06:27:33.936Z,28.12
2022-12-29T06:30:02.751Z,28.35
2022-12-29T06:32:31.285Z,28.47
2022-12-29T06:35:00.375Z,28.18
2022-12-29T06:37:28.810Z,28.16
2022-12-29T06:39:58.142Z,28.13
2022-12-29T06:42:27.893Z,28.05
2022-12-29T06:45:01.775Z,27.94
2022-12-29T06:47:30.454Z,28.03
2022-12-29T06:49:59.206Z,27.83
2022-12-29T06:52:27.596Z,27.92
2022-12-29T06:54:56.531Z,27.62
2022-12-29T06:57:25.176Z,27.49
2022-12-29T06:59:56.670Z,27.29
2022-12-29T07:02:26.485Z,27.42
2022-12-29T07:04:55.701Z,27.17
2022-12-29T07:07:24.074Z,27.25
2022-12-29T07:09:52.828Z,27.55
2022-12-29T07:12:21.221Z,27.73
2022-12-29T07:14:50.127Z,27.44
2022-12-29T07:17:19.891Z,27.19
2022-12-29T07:19:48.515Z,27.29
2022-12-29T07:22:16.751Z,27.43
2022-12-29T07:24:46.140Z,27.34
2022-12-29T07:27:14.510Z,27.33
2022-12-29T07:29:43.516Z,27.67
2022-12-29T07:32:11.887Z,27.60
2022-12-29T07:34:41.925Z,27.69
2022-12-29T07:37:10.409Z,28.09
2022-12-29T07:39:39.046Z,27.95
2022-12-29T07:42:07.432Z,27.87
2022-12-29T07:44:37.689Z,27.71
2022-12-29T07:47:06.176Z,27.45
2022-12-29T07:49:34.776Z,27.56
2022-12-29T07:52:04.517Z,27.28
2022-12-29T07:54:35.104Z,27.02
2022-12-29T07:57:06.942Z,27.02
2022-12-29T07:59:35.747Z,26.73
2022-12-29T08:02:04.205Z,26.52
2022-12-29T08:04:33.070Z,25.56
2022-12-29T08:07:01.957Z,24.63
2022-12-29T08:09:31.949Z,23.80
2022-12-29T08:12:00.426Z,22.92
2022-12-29T08:14:28.940Z,21.90
2022-12-29T08:16:57.377Z,21.10
2022-12-29T08:19:26.514Z,20.42
2022-12-29T08:21:55.984Z,20.77
2022-12-29T08:24:27.008Z,21.61
2022-12-29T08:27:18.180Z,22.02
2022-12-29T08:30:08.130Z,22.96
2022-12-29T08:32:46.934Z,23.24
2022-12-29T08:35:24.701Z,23.11
2022-12-29T08:38:01.613Z,23.13
2022-12-29T08:40:35.113Z,22.57
2022-12-29T08:43:08.818Z,22.18
2022-12-29T08:45:37.846Z,21.93
2022-12-29T08:48:21.344Z,21.05
2022-12-29T08:50:50.877Z,20.89
2022-12-29T08:53:19.999Z,19.93
2022-12-29T08:55:49.763Z,19.31
2022-12-29T08:58:19.763Z,18.26
2022-12-29T09:00:48.449Z,17.54
2022-12-29T09:03:25.864Z,16.28
2022-12-29T09:06:05.937Z,15.62
2022-12-29T09:08:34.548Z,14.78
2022-12-29T09:11:10.668Z,14.25
2022-12-29T09:13:41.138Z,14.08
2022-12-29T09:16:10.204Z,13.64
2022-12-29T09:18:38.900Z,13.55
2022-12-29T09:21:08.448Z,13.67
2022-12-29T09:23:45.157Z,13.56
2022-12-29T09:26:23.010Z,13.80
2022-12-29T09:28:54.790Z,13.33
2022-12-29T09:31:28.451Z,13.49
2022-12-29T09:33:57.379Z,13.47
2022-12-29T09:36:26.026Z,13.00
2022-12-29T09:38:55.895Z,12.71
2022-12-29T09:41:29.005Z,13.34
2022-12-29T09:44:06.266Z,14.74
2022-12-29T09:46:37.123Z,16.38
2022-12-29T09:49:19.970Z,16.70
2022-12-29T09:51:50.676Z,18.03
2022-12-29T09:54:27.186Z,18.07
2022-12-29T09:56:56.619Z,18.46
2022-12-29T09:59:31.757Z,18.22
2022-12-29T10:02:15.295Z,19.08
2022-12-29T10:04:44.539Z,19.55
2022-12-29T10:07:29.508Z,19.95
2022-12-29T10:10:05.747Z,19.80
2022-12-29T10:12:45.360Z,19.55
2022-12-29T10:15:23.488Z,18.12
2022-12-29T10:17:57.098Z,17.30
2022-12-29T10:20:31.695Z,17.53
2022-12-29T10:23:18.607Z,18.39
2022-12-29T10:25:47.318Z,18.88
2022-12-29T10:28:20.954Z,17.87
2022-12-29T10:30:53.969Z,17.53
2022-12-29T10:33:26.559Z,16.86
2022-12-29T10:35:54.950Z,16.64
2022-12-29T10:38:28.926Z,16.40
2022-12-29T10:41:01.163Z,16.96
2022-12-29T10:43:31.252Z,17.53
2022-12-29T10:46:05.294Z,17.61
2022-12-29T10:48:35.635Z,18.13
2022-12-29T10:51:05.638Z,18.30
2022-12-29T10:53:44.679Z,17.94
2022-12-29T10:56:19.230Z,17.46
2022-12-29T10:58:49.824Z,16.72
2022-12-29T11:01:21.574Z,16.08
2022-12-29T11:04:00.386Z,16.88
2022-12-29T11:06:31.237Z,17.70
2022-12-29T11:09:01.887Z,18.42
2022-12-29T11:11:36.536Z,18.92
2022-12-29T11:14:13.891Z,19.31
2022-12-29T11:16:45.841Z,20.13
2022-12-29T11:19:38.997Z,20.05
2022-12-29T11:22:18.769Z,20.16
2022-12-29T11:24:49.159Z,20.64
2022-12-29T11:27:20.785Z,20.37
2022-12-29T11:29:50.931Z,20.16
2022-12-29T11:32:28.383Z,19.42
2022-12-29T11:35:00.297Z,19.51
2022-12-29T11:37:32.262Z,19.27
2022-12-29T11:40:05.414Z,19.39
2022-12-29T11:42:38.124Z,19.21
2022-12-29T11:45:14.113Z,19.19
2022-12-29T11:47:47.235Z,19.13
2022-12-29T11:50:21.388Z,19.42
2022-12-29T11:52:51.118Z,19.76
2022-12-29T11:55:23.292Z,20.21
2022-12-29T11:57:53.213Z,20.45
2022-12-29T12:00:26.389Z,20.39
2022-12-29T12:03:01.722Z,20.46
2022-12-29T12:05:36.537Z,20.73
2022-12-29T12:08:16.166Z,20.83
2022-12-29T12:10:51.560Z,20.99
2022-12-29T12:13:25.235Z,20.78
2022-12-29T12:16:02.647Z,20.35
2022-12-29T12:18:39.430Z,20.22
2022-12-29T12:21:13.470Z,20.34
2022-12-29T12:23:51.312Z,20.09
2022-12-29T12:26:22.665Z,20.55
2022-12-29T12:28:57.229Z,20.44
2022-12-29T12:31:35.749Z,20.59
2022-12-29T12:34:08.689Z,20.80
2022-12-29T12:37:01.610Z,20.63
2022-12-29T12:39:39.209Z,21.07
2022-12-29T12:42:20.676Z,21.35
2022-12-29T12:44:58.126Z,21.82
2022-12-29T12:47:45.791Z,21.90
2022-12-29T12:50:34.123Z,21.99
2022-12-29T12:53:21.450Z,22.26
2022-12-29T12:56:03.537Z,23.25
2022-12-29T12:58:39.636Z,22.75
2022-12-29T13:01:18.211Z,23.07
2022-12-29T13:04:14.661Z,22.59
2022-12-29T13:06:53.702Z,22.73
2022-12-29T13:09:45.677Z,22.73
2022-12-29T13:12:23.152Z,22.77
2022-12-29T13:15:12.622Z,22.39
2022-12-29T13:17:46.379Z,22.50
2022-12-29T13:20:27.493Z,22.24
2022-12-29T13:23:09.011Z,22.29
2022-12-29T13:26:01.199Z,22.64
2022-12-29T13:28:38.065Z,22.77
2022-12-29T13:31:13.046Z,22.82
2022-12-29T13:33:51.529Z,23.14
2022-12-29T13:36:27.306Z,23.26
2022-12-29T13:39:05.260Z,23.55
2022-12-29T13:41:35.833Z,24.10
2022-12-29T13:44:07.533Z,23.88
2022-12-29T13:46:40.879Z,24.16
2022-12-29T13:49:15.720Z,23.78
2022-12-29T13:51:50.917Z,24.17
2022-12-29T13:54:30.154Z,24.21
2022-12-29T13:57:05.426Z,24.62
2022-12-29T13:59:47.709Z,24.48
2022-12-29T14:02:25.723Z,24.57
2022-12-29T14:05:01.212Z,24.66
2022-12-29T14:07:31.671Z,25.03
2022-12-29T14:10:06.802Z,25.23
2022-12-29T14:12:40.266Z,25.00
2022-12-29T14:15:18.051Z,24.92
2022-12-29T14:17:48.291Z,25.47
2022-12-29T14:20:22.744Z,25.20
2022-12-29T14:23:02.638Z,24.81
2022-12-29T14:25:56.950Z,25.18
2022-12-29T14:28:27.587Z,25.73
2022-12-29T14:30:58.303Z,25.98
2022-12-29T14:33:31.282Z,25.80
2022-12-29T14:36:23.879Z,25.66
2022-12-29T14:38:56.538Z,26.36
2022-12-29T14:41:36.528Z,26.21
2022-12-29T14:44:22.519Z,26.25
2022-12-29T14:46:59.548Z,26.54
2022-12-29T14:49:39.197Z,26.66
2022-12-29T14:55:34.736Z,26.13
2022-12-29T14:58:13.569Z,25.83
2022-12-29T15:00:42.651Z,27.02
2022-12-29T15:03:22.737Z,26.82
2022-12-29T15:05:53.926Z,27.04
2022-12-29T15:08:23.381Z,25.96
2022-12-29T15:10:56.281Z,26.22
2022-12-29T15:13:36.431Z,25.92
2022-12-29T15:16:05.857Z,26.36
2022-12-29T15:18:40.497Z,26.25
2022-12-29T15:21:09.393Z,26.57
2022-12-29T15:23:41.378Z,26.70
2022-12-29T15:26:11.504Z,26.14
2022-12-29T15:28:46.796Z,26.08
2022-12-29T15:31:16.838Z,26.53
2022-12-29T15:33:57.861Z,26.24
2022-12-29T15:36:29.234Z,26.36
2022-12-29T15:39:05.496Z,26.15
2022-12-29T15:42:00.237Z,26.16
2022-12-29T15:44:37.588Z,26.34
2022-12-29T15:47:23.171Z,26.45
2022-12-29T15:50:07.340Z,26.33
2022-12-29T15:52:39.863Z,26.24
2022-12-29T15:55:24.786Z,25.78
2022-12-29T15:58:06.663Z,26.02
2022-12-29T16:01:14.286Z,25.88
2022-12-29T16:03:52.877Z,25.82
2022-12-29T16:06:41.939Z,26.06
2022-12-29T16:09:18.989Z,25.85
2022-12-29T16:18:28.851Z,25.06
2022-12-29T16:21:02.685Z,25.75
2022-12-29T16:23:36.830Z,26.28
2022-12-29T16:26:11.128Z,26.03
2022-12-29T16:29:01.365Z,25.64
2022-12-29T16:38:36.893Z,25.45
2022-12-29T16:41:06.454Z,26.03
2022-12-29T16:43:47.790Z,25.81
2022-12-29T16:46:31.571Z,25.45
2022-12-29T16:49:26.199Z,25.82
2022-12-29T16:52:15.915Z,26.11
2022-12-29T16:55:06.416Z,25.86
2022-12-29T16:57:48.223Z,26.38
2022-12-29T17:00:22.703Z,26.17
2022-12-29T17:02:56.293Z,26.38
2022-12-29T17:08:51.991Z,26.51
2022-12-29T17:11:57.814Z,26.47
2022-12-29T17:14:40.640Z,26.91
2022-12-29T17:17:36.693Z,26.55
2022-12-29T17:25:43.674Z,27.14
2022-12-29T17:28:26.168Z,26.45
2022-12-29T17:31:14.237Z,27.16
2022-12-29T17:33:56.154Z,27.75
2022-12-29T17:36:29.144Z,27.78
2022-12-29T17:39:09.375Z,27.59
2022-12-29T17:41:41.959Z,27.53
2022-12-29T17:44:23.016Z,27.41
2022-12-29T17:47:09.018Z,27.77
2022-12-29T17:53:00.673Z,28.03
2022-12-29T17:58:24.090Z,28.15
2022-12-29T18:01:01.563Z,27.59
2022-12-29T18:03:32.981Z,28.20
2022-12-29T18:06:07.180Z,28.41
2022-12-29T18:08:37.253Z,28.19
2022-12-29T18:11:08.123Z,28.38
2022-12-29T18:13:45.921Z,28.62
2022-12-29T18:16:21.520Z,28.43
2022-12-29T18:18:50.703Z,28.72
2022-12-29T18:21:35.920Z,28.79
2022-12-29T18:24:07.943Z,29.05
2022-12-29T18:26:38.559Z,29.05
2022-12-29T18:29:08.505Z,28.80
2022-12-29T18:31:40.374Z,28.31
2022-12-29T18:34:15.457Z,28.18
2022-12-29T18:36:45.943Z,28.37
2022-12-29T18:39:15.187Z,28.48
2022-12-29T18:41:46.187Z,28.29
2022-12-29T18:44:15.683Z,28.63
2022-12-29T18:46:49.563Z,28.32
2022-12-29T18:49:20.433Z,28.27
2022-12-29T18:51:49.602Z,28.45
2022-12-29T18:54:27.254Z,27.52
2022-12-29T18:57:02.254Z,27.81
2022-12-29T18:59:43.364Z,28.00
2022-12-29T19:02:21.381Z,27.10
2022-12-29T19:04:53.185Z,28.03
2022-12-29T19:07:25.414Z,28.14
2022-12-29T19:09:56.414Z,28.37
2022-12-29T19:12:28.477Z,28.89
2022-12-29T19:14:56.965Z,27.54
2022-12-29T19:17:27.220Z,28.44
2022-12-29T19:19:56.092Z,28.67
2022-12-29T19:22:25.076Z,28.73
2022-12-29T19:24:59.647Z,28.49
2022-12-29T19:27:29.176Z,28.39
2022-12-29T19:29:57.934Z,28.42
2022-12-29T19:32:28.437Z,28.18
2022-12-29T19:34:56.850Z,28.72
2022-12-29T19:37:25.781Z,28.63
2022-12-29T19:39:54.528Z,28.27
2022-12-29T19:42:23.557Z,28.43
2022-12-29T19:44:52.004Z,28.41
2022-12-29T19:47:21.166Z,28.66
2022-12-29T19:49:51.647Z,28.34
2022-12-29T19:52:20.627Z,28.72
2022-12-29T19:54:49.391Z,28.34
2022-12-29T19:57:19.076Z,28.39
2022-12-29T19:59:47.795Z,28.26
2022-12-29T20:02:21.641Z,28.17
2022-12-29T20:04:53.964Z,27.85
2022-12-29T20:07:23.931Z,28.08
2022-12-29T20:09:52.744Z,28.34
2022-12-29T20:12:28.838Z,28.20
2022-12-29T20:14:58.203Z,28.34
2022-12-29T20:18:10.360Z,28.61
2022-12-29T20:20:18.100Z,28.31
2022-12-29T20:22:47.304Z,28.58
2022-12-29T20:25:44.285Z,28.76
2022-12-29T20:28:05.220Z,28.74
2022-12-29T20:30:35.161Z,28.87
2022-12-29T20:33:08.402Z,28.58
2022-12-29T20:35:40.207Z,28.70
2022-12-29T20:38:10.045Z,29.02
2022-12-29T20:40:46.235Z,28.79
2022-12-29T20:43:17.925Z,29.12
2022-12-29T20:45:49.425Z,29.17
2022-12-29T20:48:24.139Z,29.55
2022-12-29T20:51:01.023Z,29.03
2022-12-29T20:53:41.925Z,29.38
2022-12-29T20:56:13.801Z,29.35
2022-12-29T20:59:17.139Z,29.60
2022-12-29T21:01:32.694Z,29.69
2022-12-29T21:04:02.117Z,29.73
2022-12-29T21:06:32.481Z,29.57
2022-12-29T21:09:01.788Z,29.70
2022-12-29T21:11:30.744Z,29.88
2022-12-29T21:14:02.965Z,29.82
2022-12-29T21:16:31.752Z,29.33
2022-12-29T21:19:02.211Z,29.76
2022-12-29T21:21:32.191Z,29.20
2022-12-29T21:24:05.762Z,29.30
2022-12-29T21:26:36.028Z,29.27
2022-12-29T21:29:05.997Z,29.49
2022-12-29T21:31:37.579Z,29.13
2022-12-29T21:34:08.259Z,29.20
2022-12-29T21:36:38.329Z,29.20
2022-12-29T21:39:07.526Z,29.23
2022-12-29T21:41:36.120Z,29.63
2022-12-29T21:44:23.322Z,29.69
2022-12-29T21:46:52.274Z,29.50
2022-12-29T21:49:21.880Z,29.38
2022-12-29T21:51:51.686Z,29.55
2022-12-29T21:54:40.717Z,29.18
2022-12-29T21:57:10.581Z,29.39
2022-12-29T21:59:57.546Z,29.30
2022-12-29T22:02:44.630Z,29.34
2022-12-29T22:05:32.150Z,29.42
2022-12-29T22:08:20.970Z,29.30
2022-12-29T22:11:07.718Z,29.54
2022-12-29T22:13:37.770Z,29.56
2022-12-29T22:16:08.631Z,29.46
2022-12-29T22:18:38.483Z,29.43
2022-12-29T22:21:08.745Z,29.83
2022-12-29T22:23:39.703Z,29.50
2022-12-29T22:26:10.518Z,28.30
2022-12-29T22:28:40.473Z,29.44
2022-12-29T22:31:27.352Z,28.68
2022-12-29T22:33:56.871Z,29.31
2022-12-29T22:36:26.629Z,29.01
2022-12-29T22:38:56.548Z,29.08
2022-12-29T22:41:26.584Z,29.38
2022-12-29T22:43:55.223Z,29.56
2022-12-29T22:46:24.701Z,29.45
2022-12-29T22:48:53.497Z,29.51
2022-12-29T22:51:22.518Z,29.62
2022-12-29T22:53:51.251Z,29.60
2022-12-29T22:56:21.634Z,29.71
2022-12-29T22:58:50.374Z,29.67
2022-12-29T23:01:23.144Z,29.76
2022-12-29T23:03:52.192Z,29.83
2022-12-29T23:06:23.300Z,29.82
2022-12-29T23:08:54.307Z,29.81
2022-12-29T23:11:25.371Z,29.74
2022-12-29T23:13:54.017Z,29.76
2022-12-29T23:16:23.581Z,29.55
2022-12-29T23:18:53.632Z,29.52
2022-12-29T23:21:22.861Z,29.58
2022-12-29T23:24:04.324Z,29.68
2022-12-29T23:26:37.519Z,29.25
2022-12-29T23:29:08.673Z,29.63
2022-12-29T23:31:37.683Z,28.38
2022-12-29T23:34:07.465Z,29.45
2022-12-29T23:36:37.160Z,29.77
2022-12-29T23:39:08.791Z,29.82
2022-12-29T23:41:39.817Z,29.65
2022-12-29T23:44:08.767Z,29.87
2022-12-29T23:46:38.047Z,29.80
2022-12-29T23:49:06.709Z,29.95
2022-12-29T23:51:35.850Z,29.94
2022-12-29T23:54:05.358Z,30.03
2022-12-29T23:56:34.419Z,30.21
2022-12-29T23:59:06.341Z,29.97
